createdAt,value
2019-01-20T00:00:14.991Z,32.3
2019-01-20T00:01:05.306Z,32.3
2019-01-20T00:01:55.642Z,32.3
2019-01-20T00:02:45.439Z,32.3
2019-01-20T00:03:35.524Z,32.3
2019-01-20T00:04:25.581Z,32.3
2019-01-20T00:05:14.766Z,32.3
2019-01-20T00:06:05.426Z,32.3
2019-01-20T00:06:55.981Z,32.3
2019-01-20T00:07:46.306Z,32.3
2019-01-20T00:08:35.592Z,32.3
2019-01-20T00:09:25.606Z,32.3
2019-01-20T00:10:16.273Z,32.3
2019-01-20T00:11:05.698Z,32.3
2019-01-20T00:11:56.323Z,32.2
2019-01-20T00:12:46.443Z,32.2
2019-01-20T00:13:36.756Z,32.2
2019-01-20T00:14:26.793Z,32.2
2019-01-20T00:15:16.844Z,32.2
2019-01-20T00:16:06.328Z,32.2
2019-01-20T00:16:56.423Z,32.2
2019-01-20T00:17:46.168Z,32.2
2019-01-20T00:18:37.075Z,32.2
2019-01-20T00:19:26.580Z,32.2
2019-01-20T00:20:17.270Z,32.2
2019-01-20T00:21:07.012Z,32.2
2019-01-20T00:21:57.336Z,32.2
2019-01-20T00:22:46.795Z,32.2
2019-01-20T00:23:37.140Z,32.2
2019-01-20T00:24:26.405Z,32.2
2019-01-20T00:25:17.220Z,32.2
2019-01-20T00:26:07.055Z,32.2
2019-01-20T00:26:57.354Z,32.2
2019-01-20T00:27:47.127Z,32.2
2019-01-20T00:28:36.907Z,32.1
2019-01-20T00:29:27.567Z,32.2
2019-01-20T00:30:17.587Z,32.1
2019-01-20T00:31:07.352Z,32.1
2019-01-20T00:31:57.484Z,32.1
2019-01-20T00:32:46.966Z,32.1
2019-01-20T00:33:38.122Z,32.1
2019-01-20T00:34:28.564Z,32.1
2019-01-20T00:35:19.882Z,32.1
2019-01-20T00:36:08.252Z,32.1
2019-01-20T00:36:58.032Z,32.1
2019-01-20T00:37:47.819Z,32.1
2019-01-20T00:38:37.917Z,32.1
2019-01-20T00:39:27.932Z,32.1
2019-01-20T00:40:17.736Z,32.1
2019-01-20T00:41:08.343Z,32.1
2019-01-20T00:41:58.418Z,32.1
2019-01-20T00:42:47.878Z,32.1
2019-01-20T00:43:38.224Z,32.1
2019-01-20T00:44:27.448Z,32.1
2019-01-20T00:45:17.536Z,32.1
2019-01-20T00:46:08.121Z,32.1
2019-01-20T00:46:59.015Z,32.1
2019-01-20T00:47:48.528Z,32.1
2019-01-20T00:48:38.575Z,32.1
2019-01-20T00:49:28.615Z,32.1
2019-01-20T00:50:18.141Z,32.1
2019-01-20T00:51:08.438Z,32.1
2019-01-20T00:51:58.513Z,32.1
2019-01-20T00:52:49.128Z,32.1
2019-01-20T00:53:39.183Z,32.1
2019-01-20T00:54:28.688Z,32.1
2019-01-20T00:55:18.489Z,32.1
2019-01-20T00:56:09.117Z,32.1
2019-01-20T00:56:59.408Z,32.1
2019-01-20T00:57:49.533Z,32.1
2019-01-20T00:58:39.046Z,32
2019-01-20T00:59:28.762Z,32
2019-01-20T01:00:19.411Z,32
2019-01-20T01:01:09.180Z,32
2019-01-20T01:01:59.225Z,32
2019-01-20T01:02:50.042Z,32
2019-01-20T01:03:39.315Z,32
2019-01-20T01:04:29.667Z,32
2019-01-20T01:05:19.711Z,32
2019-01-20T01:06:10.350Z,32
2019-01-20T01:06:59.547Z,32
2019-01-20T01:07:49.632Z,32
2019-01-20T01:08:39.990Z,32
2019-01-20T01:09:30.293Z,32
2019-01-20T01:10:19.867Z,32
2019-01-20T01:11:10.107Z,31.9
2019-01-20T01:12:00.452Z,32
2019-01-20T01:12:50.012Z,31.9
2019-01-20T01:13:40.569Z,31.9
2019-01-20T01:14:30.424Z,31.9
2019-01-20T01:15:19.855Z,31.9
2019-01-20T01:16:09.897Z,31.9
2019-01-20T01:17:00.779Z,31.9
2019-01-20T01:17:50.891Z,31.9
2019-01-20T01:18:40.926Z,31.9
2019-01-20T01:19:30.147Z,31.9
2019-01-20T01:20:20.766Z,31.9
2019-01-20T01:21:10.521Z,31.9
2019-01-20T01:22:00.038Z,31.9
2019-01-20T01:22:50.926Z,31.9
2019-01-20T01:23:40.421Z,31.9
2019-01-20T01:24:31.029Z,31.9
2019-01-20T01:25:21.393Z,31.9
2019-01-20T01:26:10.866Z,31.9
2019-01-20T01:27:00.411Z,31.9
2019-01-20T01:27:50.982Z,31.9
2019-01-20T01:28:40.828Z,31.9
2019-01-20T01:29:31.391Z,31.9
2019-01-20T01:30:20.873Z,31.9
2019-01-20T01:31:11.228Z,31.9
2019-01-20T01:32:00.716Z,31.9
2019-01-20T01:32:51.621Z,31.9
2019-01-20T01:33:41.668Z,31.9
2019-01-20T01:34:31.413Z,31.9
2019-01-20T01:35:21.640Z,31.9
2019-01-20T01:36:11.833Z,31.9
2019-01-20T01:37:01.611Z,31.9
2019-01-20T01:37:51.955Z,31.9
2019-01-20T01:38:42.053Z,31.8
2019-01-20T01:39:32.368Z,31.8
2019-01-20T01:40:21.853Z,31.8
2019-01-20T01:41:11.613Z,31.8
2019-01-20T01:42:02.278Z,31.9
2019-01-20T01:42:52.559Z,31.9
2019-01-20T01:43:42.365Z,31.8
2019-01-20T01:44:32.452Z,31.8
2019-01-20T01:45:22.756Z,31.8
2019-01-20T01:46:11.759Z,31.8
2019-01-20T01:47:02.574Z,31.8
2019-01-20T01:47:52.402Z,31.8
2019-01-20T01:48:43.026Z,31.8
2019-01-20T01:49:31.627Z,31.8
2019-01-20T01:50:22.360Z,31.8
2019-01-20T01:51:12.384Z,31.8
2019-01-20T01:52:03.105Z,31.8
2019-01-20T01:52:52.507Z,31.8
2019-01-20T01:53:42.885Z,31.8
2019-01-20T01:54:32.892Z,31.8
2019-01-20T01:55:22.404Z,31.8
2019-01-20T01:56:12.976Z,31.8
2019-01-20T01:57:03.549Z,31.8
2019-01-20T01:57:52.505Z,31.8
2019-01-20T01:58:43.384Z,31.8
2019-01-20T01:59:33.437Z,31.8
2019-01-20T02:00:23.280Z,31.8
2019-01-20T02:01:13.628Z,31.8
2019-01-20T02:02:03.663Z,31.8
2019-01-20T02:02:53.951Z,31.8
2019-01-20T02:03:43.711Z,31.8
2019-01-20T02:04:34.079Z,31.8
2019-01-20T02:05:23.563Z,31.9
2019-01-20T02:06:13.909Z,31.9
2019-01-20T02:07:03.124Z,31.9
2019-01-20T02:07:54.618Z,32
2019-01-20T02:08:44.681Z,32.1
2019-01-20T02:09:34.167Z,32.1
2019-01-20T02:10:24.761Z,32.1
2019-01-20T02:11:13.417Z,32.2
2019-01-20T02:12:04.078Z,32.3
2019-01-20T02:12:54.370Z,32.3
2019-01-20T02:13:44.407Z,32.4
2019-01-20T02:14:34.468Z,32.5
2019-01-20T02:15:24.554Z,32.6
2019-01-20T02:16:14.029Z,32.6
2019-01-20T02:17:04.650Z,32.7
2019-01-20T02:17:54.980Z,32.8
2019-01-20T02:18:44.757Z,32.9
2019-01-20T02:19:34.793Z,33
2019-01-20T02:20:24.896Z,33.1
2019-01-20T02:21:15.520Z,33.2
2019-01-20T02:22:05.560Z,33.3
2019-01-20T02:22:55.050Z,33.4
2019-01-20T02:23:44.815Z,33.4
2019-01-20T02:24:35.147Z,33.6
2019-01-20T02:25:25.259Z,33.6
2019-01-20T02:26:15.322Z,33.8
2019-01-20T02:27:05.334Z,33.9
2019-01-20T02:27:55.385Z,33.9
2019-01-20T02:28:45.775Z,34.1
2019-01-20T02:29:35.517Z,34.2
2019-01-20T02:30:25.963Z,34.3
2019-01-20T02:31:15.083Z,34.4
2019-01-20T02:32:05.452Z,34.5
2019-01-20T02:32:55.574Z,34.6
2019-01-20T02:33:45.054Z,34.7
2019-01-20T02:34:35.603Z,34.8
2019-01-20T02:35:25.379Z,34.9
2019-01-20T02:36:16.284Z,35
2019-01-20T02:37:06.356Z,35.1
2019-01-20T02:37:55.922Z,35.3
2019-01-20T02:38:45.840Z,35.4
2019-01-20T02:39:35.936Z,35.4
2019-01-20T02:40:26.935Z,35.6
2019-01-20T02:41:15.782Z,35.7
2019-01-20T02:42:05.874Z,35.8
2019-01-20T02:42:56.474Z,35.9
2019-01-20T02:43:46.338Z,36.1
2019-01-20T02:44:36.818Z,36.1
2019-01-20T02:45:26.909Z,36.3
2019-01-20T02:46:16.503Z,36.4
2019-01-20T02:47:07.281Z,36.5
2019-01-20T02:47:56.888Z,36.6
2019-01-20T02:48:46.586Z,36.8
2019-01-20T02:49:37.458Z,36.9
2019-01-20T02:50:26.728Z,36.9
2019-01-20T02:51:17.633Z,37.1
2019-01-20T02:52:07.103Z,37.2
2019-01-20T02:52:56.361Z,37.3
2019-01-20T02:53:47.461Z,37.4
2019-01-20T02:54:37.283Z,37.5
2019-01-20T02:55:27.612Z,37.6
2019-01-20T02:56:16.493Z,37.8
2019-01-20T02:57:07.743Z,37.9
2019-01-20T02:57:57.535Z,38
2019-01-20T02:58:47.543Z,38.1
2019-01-20T02:59:37.038Z,38.2
2019-01-20T03:00:27.452Z,38.3
2019-01-20T03:01:16.887Z,38.4
2019-01-20T03:02:08.068Z,38.6
2019-01-20T03:02:58.125Z,38.7
2019-01-20T03:03:47.408Z,38.8
2019-01-20T03:04:37.948Z,38.9
2019-01-20T03:05:27.714Z,38.9
2019-01-20T03:08:42.661Z,39.2
2019-01-20T03:09:32.181Z,39.3
2019-01-20T03:10:22.532Z,39.3
2019-01-20T03:11:12.852Z,39.3
2019-01-20T03:12:09.887Z,39.3
2019-01-20T03:12:52.649Z,39.4
2019-01-20T03:13:42.703Z,39.4
2019-01-20T03:14:32.814Z,39.4
2019-01-20T03:15:22.859Z,39.4
2019-01-20T03:16:13.240Z,39.5
2019-01-20T03:17:02.480Z,39.6
2019-01-20T03:17:53.299Z,39.6
2019-01-20T03:18:43.323Z,39.6
2019-01-20T03:19:33.397Z,39.8
2019-01-20T03:20:23.186Z,39.8
2019-01-20T03:21:12.724Z,39.9
2019-01-20T03:22:03.013Z,39.9
2019-01-20T03:22:53.153Z,39.9
2019-01-20T03:23:43.471Z,39.9
2019-01-20T03:24:33.714Z,40
2019-01-20T03:25:23.521Z,40
2019-01-20T03:26:13.996Z,40
2019-01-20T03:27:03.663Z,40.1
2019-01-20T03:27:53.723Z,40.1
2019-01-20T03:28:43.461Z,40.1
2019-01-20T03:29:33.846Z,40.1
2019-01-20T03:30:23.846Z,40.1
2019-01-20T03:31:13.762Z,40.1
2019-01-20T03:32:04.207Z,40.1
2019-01-20T03:32:54.049Z,40.1
2019-01-20T03:33:44.423Z,40.1
2019-01-20T03:34:34.494Z,40.1
2019-01-20T03:35:24.301Z,40.1
2019-01-20T03:36:14.273Z,40.1
2019-01-20T03:37:04.598Z,40.1
2019-01-20T03:37:54.667Z,40.1
2019-01-20T03:38:44.400Z,40.1
2019-01-20T03:39:34.536Z,40.1
2019-01-20T03:40:24.817Z,40.1
2019-01-20T03:41:14.918Z,40.1
2019-01-20T03:42:13.406Z,40.1
2019-01-20T03:42:54.970Z,40.1
2019-01-20T03:43:45.061Z,40.1
2019-01-20T03:44:34.845Z,40.1
2019-01-20T03:45:24.685Z,40.1
2019-01-20T03:46:14.968Z,40.1
2019-01-20T03:47:05.394Z,40.1
2019-01-20T03:47:54.269Z,40.1
2019-01-20T03:48:45.142Z,40.1
2019-01-20T03:49:35.430Z,40.1
2019-01-20T03:50:25.527Z,40.1
2019-01-20T03:51:15.026Z,40.1
2019-01-20T03:52:05.344Z,40.1
2019-01-20T03:52:55.376Z,40.1
2019-01-20T03:53:45.459Z,40.1
2019-01-20T03:54:35.279Z,40.1
2019-01-20T03:55:25.089Z,40.1
2019-01-20T03:56:15.614Z,40.1
2019-01-20T03:57:04.851Z,40.1
2019-01-20T03:57:55.469Z,40.1
2019-01-20T03:58:46.064Z,40.1
2019-01-20T03:59:36.113Z,40.1
2019-01-20T04:00:26.079Z,40.1
2019-01-20T04:01:16.223Z,40.1
2019-01-20T04:02:06.298Z,40.1
2019-01-20T04:02:55.616Z,40.1
2019-01-20T04:03:46.185Z,40.1
2019-01-20T04:04:35.664Z,40.1
2019-01-20T04:05:26.398Z,40.1
2019-01-20T04:06:16.060Z,40.1
2019-01-20T04:07:06.623Z,40.1
2019-01-20T04:07:58.487Z,40.1
2019-01-20T04:08:46.231Z,40.1
2019-01-20T04:09:36.590Z,40.1
2019-01-20T04:10:26.331Z,40.1
2019-01-20T04:11:16.415Z,40.1
2019-01-20T04:12:06.975Z,40.1
2019-01-20T04:12:57.136Z,40.1
2019-01-20T04:13:46.648Z,40.1
2019-01-20T04:14:36.592Z,40.1
2019-01-20T04:15:27.238Z,40.1
2019-01-20T04:16:16.972Z,40.1
2019-01-20T04:17:07.345Z,40.1
2019-01-20T04:17:57.403Z,40.1
2019-01-20T04:18:47.167Z,40.1
2019-01-20T04:19:37.000Z,40.1
2019-01-20T04:20:27.295Z,40.1
2019-01-20T04:21:17.105Z,40.1
2019-01-20T04:22:07.637Z,40.1
2019-01-20T04:22:57.219Z,40.1
2019-01-20T04:23:47.785Z,40
2019-01-20T04:24:37.820Z,40
2019-01-20T04:25:28.023Z,40
2019-01-20T04:26:17.678Z,40
2019-01-20T04:27:07.457Z,40.1
2019-01-20T04:27:58.072Z,40
2019-01-20T04:28:48.244Z,40
2019-01-20T04:29:38.184Z,40
2019-01-20T04:30:28.399Z,40
2019-01-20T04:31:17.720Z,40
2019-01-20T04:32:07.567Z,40
2019-01-20T04:32:58.169Z,40
2019-01-20T04:33:48.487Z,40
2019-01-20T04:34:38.254Z,40
2019-01-20T04:35:28.393Z,40
2019-01-20T04:36:18.075Z,40
2019-01-20T04:37:08.736Z,40
2019-01-20T04:37:58.749Z,40
2019-01-20T04:38:48.815Z,39.9
2019-01-20T04:39:38.624Z,40
2019-01-20T04:40:28.386Z,39.9
2019-01-20T04:41:18.491Z,39.9
2019-01-20T04:42:09.137Z,39.9
2019-01-20T04:42:58.896Z,40
2019-01-20T04:43:49.196Z,40
2019-01-20T04:44:38.671Z,39.9
2019-01-20T04:45:28.981Z,39.9
2019-01-20T04:46:18.835Z,39.9
2019-01-20T04:47:09.091Z,39.9
2019-01-20T04:47:58.863Z,39.9
2019-01-20T04:48:48.935Z,39.9
2019-01-20T04:49:38.688Z,39.9
2019-01-20T04:50:29.651Z,39.9
2019-01-20T04:51:19.358Z,39.9
2019-01-20T04:52:09.443Z,39.9
2019-01-20T04:52:59.238Z,39.9
2019-01-20T04:53:49.032Z,39.9
2019-01-20T04:54:39.660Z,39.9
2019-01-20T04:55:29.690Z,39.9
2019-01-20T04:56:20.042Z,39.9
2019-01-20T04:57:09.551Z,39.9
2019-01-20T04:57:59.832Z,39.9
2019-01-20T04:58:49.892Z,39.9
2019-01-20T04:59:39.680Z,39.9
2019-01-20T05:00:30.328Z,39.9
2019-01-20T05:01:20.102Z,39.9
2019-01-20T05:02:10.200Z,39.9
2019-01-20T05:03:00.195Z,39.9
2019-01-20T05:03:49.450Z,39.9
2019-01-20T05:04:40.295Z,39.9
2019-01-20T05:05:30.637Z,39.9
2019-01-20T05:06:20.699Z,39.9
2019-01-20T05:07:10.495Z,39.9
2019-01-20T05:08:00.549Z,39.8
2019-01-20T05:08:50.562Z,39.8
2019-01-20T05:09:40.674Z,39.8
2019-01-20T05:10:30.723Z,39.9
2019-01-20T05:11:20.744Z,39.8
2019-01-20T05:12:10.569Z,39.8
2019-01-20T05:13:01.149Z,39.8
2019-01-20T05:13:50.657Z,39.8
2019-01-20T05:14:41.254Z,39.8
2019-01-20T05:15:31.071Z,39.8
2019-01-20T05:16:21.101Z,39.8
2019-01-20T05:17:11.421Z,39.8
2019-01-20T05:18:01.217Z,39.8
2019-01-20T05:18:51.541Z,39.8
2019-01-20T05:19:41.004Z,39.8
2019-01-20T05:20:31.431Z,39.8
2019-01-20T05:21:21.452Z,39.8
2019-01-20T05:22:11.223Z,39.8
2019-01-20T05:23:01.848Z,39.8
2019-01-20T05:23:51.018Z,39.8
2019-01-20T05:24:41.648Z,39.8
2019-01-20T05:25:32.019Z,39.8
2019-01-20T05:26:21.893Z,39.8
2019-01-20T05:27:12.335Z,39.8
2019-01-20T05:28:02.161Z,39.8
2019-01-20T05:28:51.406Z,39.8
2019-01-20T05:29:42.286Z,39.8
2019-01-20T05:30:32.110Z,39.8
2019-01-20T05:31:22.160Z,39.8
2019-01-20T05:32:12.218Z,39.8
2019-01-20T05:33:02.108Z,39.8
2019-01-20T05:33:51.987Z,39.8
2019-01-20T05:34:42.657Z,39.7
2019-01-20T05:35:32.420Z,39.7
2019-01-20T05:36:22.173Z,39.7
2019-01-20T05:37:12.588Z,39.7
2019-01-20T05:38:02.633Z,39.7
2019-01-20T05:38:52.360Z,39.7
2019-01-20T05:39:42.112Z,39.7
2019-01-20T05:40:32.842Z,39.7
2019-01-20T05:41:23.114Z,39.7
2019-01-20T05:42:13.185Z,39.7
2019-01-20T05:43:03.198Z,39.7
2019-01-20T05:43:52.962Z,39.7
2019-01-20T05:44:43.318Z,39.7
2019-01-20T05:45:33.100Z,39.7
2019-01-20T05:46:23.453Z,39.6
2019-01-20T05:47:12.920Z,39.6
2019-01-20T05:48:03.292Z,39.6
2019-01-20T05:48:53.325Z,39.6
2019-01-20T05:49:43.685Z,39.6
2019-01-20T05:50:33.759Z,39.6
2019-01-20T05:51:23.739Z,39.6
2019-01-20T05:52:13.541Z,39.6
2019-01-20T05:53:03.594Z,39.6
2019-01-20T05:53:53.906Z,39.6
2019-01-20T05:54:43.721Z,39.6
2019-01-20T05:55:34.047Z,39.6
2019-01-20T05:56:23.841Z,39.6
2019-01-20T05:57:13.920Z,39.6
2019-01-20T05:58:04.058Z,39.6
2019-01-20T05:58:53.696Z,39.6
2019-01-20T05:59:44.372Z,39.6
2019-01-20T06:00:34.156Z,39.6
2019-01-20T06:01:24.434Z,39.6
2019-01-20T06:02:14.528Z,39.6
2019-01-20T06:03:04.301Z,39.6
2019-01-20T06:03:54.356Z,39.6
2019-01-20T06:04:44.667Z,39.6
2019-01-20T06:06:41.360Z,39.5
2019-01-20T06:07:32.238Z,39.6
2019-01-20T06:08:22.022Z,39.6
2019-01-20T06:09:12.348Z,39.6
2019-01-20T06:10:02.138Z,39.5
2019-01-20T06:10:52.448Z,39.5
2019-01-20T06:11:42.261Z,39.5
2019-01-20T06:12:32.090Z,39.5
2019-01-20T06:13:22.098Z,39.5
2019-01-20T06:14:11.852Z,39.5
2019-01-20T06:15:02.527Z,39.5
2019-01-20T06:15:51.999Z,39.5
2019-01-20T06:16:42.055Z,39.5
2019-01-20T06:17:32.949Z,39.5
2019-01-20T06:18:23.300Z,39.4
2019-01-20T06:19:12.828Z,39.4
2019-01-20T06:20:02.507Z,39.4
2019-01-20T06:20:52.582Z,39.4
2019-01-20T06:21:42.074Z,39.4
2019-01-20T06:22:34.539Z,39.4
2019-01-20T06:23:23.020Z,39.4
2019-01-20T06:24:12.817Z,39.4
2019-01-20T06:25:02.940Z,39.4
2019-01-20T06:25:52.954Z,39.4
2019-01-20T06:26:43.234Z,39.4
2019-01-20T06:27:33.591Z,39.4
2019-01-20T06:28:23.907Z,39.4
2019-01-20T06:29:13.732Z,39.4
2019-01-20T06:30:02.972Z,39.4
2019-01-20T06:30:53.824Z,39.4
2019-01-20T06:31:43.663Z,39.4
2019-01-20T06:32:48.300Z,39.4
2019-01-20T06:33:24.054Z,39.4
2019-01-20T06:34:14.062Z,39.4
2019-01-20T06:35:03.635Z,39.4
2019-01-20T06:35:54.204Z,39.4
2019-01-20T06:36:43.703Z,39.4
2019-01-20T06:37:34.272Z,39.4
2019-01-20T06:38:24.059Z,39.3
2019-01-20T06:39:14.738Z,39.3
2019-01-20T06:40:04.246Z,39.3
2019-01-20T06:40:54.433Z,39.3
2019-01-20T06:41:44.828Z,39.3
2019-01-20T06:42:34.321Z,39.3
2019-01-20T06:43:24.391Z,39.3
2019-01-20T06:44:14.184Z,39.3
2019-01-20T06:45:04.320Z,39.3
2019-01-20T06:45:54.566Z,39.3
2019-01-20T06:46:45.163Z,39.3
2019-01-20T06:47:34.663Z,39.3
2019-01-20T06:48:25.533Z,39.3
2019-01-20T06:49:15.343Z,39.3
2019-01-20T06:50:04.331Z,39.3
2019-01-20T06:50:54.630Z,39.3
2019-01-20T06:51:44.975Z,39.3
2019-01-20T06:52:35.003Z,39.3
2019-01-20T06:53:25.080Z,39.3
2019-01-20T06:54:15.733Z,39.2
2019-01-20T06:55:05.756Z,39.3
2019-01-20T06:55:55.546Z,39.3
2019-01-20T06:56:45.307Z,39.3
2019-01-20T06:57:35.690Z,39.3
2019-01-20T06:58:25.200Z,39.3
2019-01-20T06:59:15.545Z,39.2
2019-01-20T07:00:05.614Z,39.2
2019-01-20T07:00:55.059Z,39.2
2019-01-20T07:01:45.937Z,39.2
2019-01-20T07:02:35.724Z,39.2
2019-01-20T07:03:25.767Z,39.2
2019-01-20T07:04:15.617Z,39.2
2019-01-20T07:06:41.326Z,39.1
2019-01-20T07:07:32.277Z,39.1
2019-01-20T07:08:51.779Z,39.1
2019-01-20T07:09:12.273Z,39.1
2019-01-20T07:10:02.276Z,39.1
2019-01-20T07:10:52.139Z,39.1
2019-01-20T07:11:41.315Z,39.1
2019-01-20T07:12:32.131Z,39.1
2019-01-20T07:13:23.316Z,39.1
2019-01-20T07:14:12.579Z,39.1
2019-01-20T07:15:03.263Z,39.1
2019-01-20T07:15:52.338Z,39.1
2019-01-20T07:16:43.049Z,39.1
2019-01-20T07:17:33.279Z,39.1
2019-01-20T07:18:38.057Z,39.1
2019-01-20T07:19:27.541Z,39.1
2019-01-20T07:20:03.541Z,39.1
2019-01-20T07:20:52.868Z,39.1
2019-01-20T07:21:43.363Z,39.1
2019-01-20T07:22:33.118Z,39.1
2019-01-20T07:23:23.155Z,39
2019-01-20T07:24:15.810Z,39.1
2019-01-20T07:25:03.563Z,39
2019-01-20T07:25:53.148Z,39
2019-01-20T07:26:43.260Z,39
2019-01-20T07:28:03.300Z,39
2019-01-20T07:28:23.311Z,39
2019-01-20T07:30:03.580Z,39
2019-01-20T07:30:54.205Z,39
2019-01-20T07:31:58.545Z,39
2019-01-20T07:32:34.442Z,38.9
2019-01-20T07:33:23.960Z,38.9
2019-01-20T07:34:14.245Z,38.9
2019-01-20T07:35:03.812Z,38.9
2019-01-20T07:35:54.132Z,38.9
2019-01-20T07:36:43.919Z,38.9
2019-01-20T07:37:33.380Z,38.9
2019-01-20T07:38:23.723Z,38.9
2019-01-20T07:39:14.068Z,38.9
2019-01-20T07:40:04.774Z,38.9
2019-01-20T07:40:53.902Z,38.9
2019-01-20T07:41:44.604Z,38.9
2019-01-20T07:42:34.831Z,38.9
2019-01-20T07:43:24.869Z,38.9
2019-01-20T07:44:14.418Z,38.9
2019-01-20T07:45:03.974Z,38.9
2019-01-20T07:45:54.782Z,38.9
2019-01-20T07:46:44.569Z,38.9
2019-01-20T07:47:34.905Z,38.9
2019-01-20T07:48:25.263Z,38.9
2019-01-20T07:49:14.457Z,38.9
2019-01-20T07:50:54.624Z,38.8
2019-01-20T07:51:44.667Z,38.8
2019-01-20T07:52:35.732Z,38.8
2019-01-20T07:53:25.317Z,38.8
2019-01-20T07:54:14.603Z,38.8
2019-01-20T07:55:04.936Z,38.8
2019-01-20T07:55:57.329Z,38.8
2019-01-20T07:56:45.534Z,38.8
2019-01-20T07:57:35.585Z,38.8
2019-01-20T07:58:25.933Z,38.8
2019-01-20T07:59:15.420Z,38.8
2019-01-20T08:00:05.504Z,38.8
2019-01-20T08:00:55.573Z,38.8
2019-01-20T08:01:46.163Z,38.8
2019-01-20T08:02:35.983Z,38.8
2019-01-20T08:03:25.430Z,38.8
2019-01-20T08:04:15.773Z,38.7
2019-01-20T08:05:06.221Z,38.7
2019-01-20T08:05:55.604Z,38.7
2019-01-20T08:06:45.996Z,38.7
2019-01-20T08:07:36.000Z,38.7
2019-01-20T08:08:26.057Z,38.7
2019-01-20T08:09:16.688Z,38.7
2019-01-20T08:10:06.742Z,38.7
2019-01-20T08:10:56.837Z,38.7
2019-01-20T08:11:46.904Z,38.6
2019-01-20T08:12:36.905Z,38.6
2019-01-20T08:13:30.157Z,38.6
2019-01-20T08:14:17.012Z,38.6
2019-01-20T08:15:05.937Z,38.6
2019-01-20T08:15:56.562Z,38.6
2019-01-20T08:16:46.994Z,38.6
2019-01-20T08:17:36.687Z,38.6
2019-01-20T08:18:27.062Z,38.6
2019-01-20T08:19:15.975Z,38.6
2019-01-20T08:20:06.877Z,38.6
2019-01-20T08:20:56.917Z,38.6
2019-01-20T08:21:46.995Z,38.6
2019-01-20T08:22:37.537Z,38.6
2019-01-20T08:23:27.369Z,38.6
2019-01-20T08:24:16.989Z,38.6
2019-01-20T08:25:07.226Z,38.6
2019-01-20T08:25:58.345Z,38.6
2019-01-20T08:26:49.546Z,38.6
2019-01-20T08:27:37.429Z,38.6
2019-01-20T08:28:27.776Z,38.6
2019-01-20T08:29:18.860Z,38.6
2019-01-20T08:30:08.360Z,38.6
2019-01-20T08:30:58.202Z,38.6
2019-01-20T08:31:47.961Z,38.5
2019-01-20T08:32:38.434Z,38.5
2019-01-20T08:33:27.771Z,38.5
2019-01-20T08:34:18.381Z,38.5
2019-01-20T08:35:22.254Z,38.5
2019-01-20T08:35:57.655Z,38.5
2019-01-20T08:36:48.613Z,38.5
2019-01-20T08:37:39.651Z,38.4
2019-01-20T08:38:28.140Z,38.4
2019-01-20T08:39:18.470Z,38.4
2019-01-20T08:40:07.400Z,38.4
2019-01-20T08:40:57.740Z,38.4
2019-01-20T08:41:49.038Z,38.4
2019-01-20T08:42:38.391Z,38.4
2019-01-20T08:43:36.580Z,38.4
2019-01-20T08:44:18.508Z,38.4
2019-01-20T08:45:23.293Z,38.4
2019-01-20T08:45:58.390Z,38.4
2019-01-20T08:46:48.700Z,38.4
2019-01-20T08:47:40.165Z,38.4
2019-01-20T08:48:28.278Z,38.4
2019-01-20T08:49:19.420Z,38.4
2019-01-20T08:50:09.190Z,38.4
2019-01-20T08:50:59.268Z,38.4
2019-01-20T08:51:49.040Z,38.4
2019-01-20T08:52:39.137Z,38.4
2019-01-20T08:53:30.655Z,38.4
2019-01-20T08:54:19.493Z,38.4
2019-01-20T08:55:09.292Z,38.4
2019-01-20T08:56:00.675Z,38.4
2019-01-20T08:56:49.856Z,38.4
2019-01-20T08:57:39.982Z,38.3
2019-01-20T08:58:29.284Z,38.3
2019-01-20T08:59:19.540Z,38.3
2019-01-20T09:00:23.974Z,38.3
2019-01-20T09:00:59.383Z,38.3
2019-01-20T09:01:49.689Z,38.3
2019-01-20T09:02:40.092Z,38.3
2019-01-20T09:03:29.556Z,38.3
2019-01-20T09:04:20.219Z,38.3
2019-01-20T09:05:09.962Z,38.3
2019-01-20T09:06:00.063Z,38.3
2019-01-20T09:06:49.511Z,38.3
2019-01-20T09:07:40.141Z,38.3
2019-01-20T09:08:29.699Z,38.3
2019-01-20T09:09:20.263Z,38.3
2019-01-20T09:10:09.743Z,38.3
2019-01-20T09:11:00.651Z,38.3
2019-01-20T09:11:50.759Z,38.3
2019-01-20T09:12:40.298Z,38.3
2019-01-20T09:13:45.278Z,38.3
2019-01-20T09:14:20.961Z,38.2
2019-01-20T09:15:10.455Z,38.2
2019-01-20T09:16:00.718Z,38.2
2019-01-20T09:16:50.778Z,38.2
2019-01-20T09:17:40.834Z,38.2
2019-01-20T09:18:46.106Z,38.2
2019-01-20T09:19:20.661Z,38.2
2019-01-20T09:20:11.798Z,38.2
2019-01-20T09:21:01.077Z,38.2
2019-01-20T09:21:51.750Z,38.2
2019-01-20T09:22:41.170Z,38.2
2019-01-20T09:23:31.569Z,38.2
2019-01-20T09:24:21.638Z,38.1
2019-01-20T09:25:11.050Z,38.1
2019-01-20T09:26:01.951Z,38.1
2019-01-20T09:26:50.883Z,38.1
2019-01-20T09:27:41.517Z,38.1
2019-01-20T09:28:31.557Z,38.1
2019-01-20T09:29:21.913Z,38.1
2019-01-20T09:30:11.420Z,38.1
2019-01-20T09:31:01.173Z,38.1
2019-01-20T09:31:52.003Z,38.1
2019-01-20T09:32:42.180Z,38.1
2019-01-20T09:33:32.703Z,38.1
2019-01-20T09:34:21.684Z,38.1
2019-01-20T09:35:12.397Z,38.1
2019-01-20T09:36:02.087Z,38.1
2019-01-20T09:36:52.718Z,38.1
2019-01-20T09:37:42.259Z,38.1
2019-01-20T09:38:32.529Z,38.1
2019-01-20T09:39:22.587Z,38.1
2019-01-20T09:40:12.649Z,38.1
2019-01-20T09:41:02.729Z,38
2019-01-20T09:41:52.249Z,38
2019-01-20T09:42:43.589Z,38
2019-01-20T09:43:32.628Z,38
2019-01-20T09:44:22.929Z,38
2019-01-20T09:45:12.783Z,38
2019-01-20T09:46:02.819Z,38
2019-01-20T09:46:52.787Z,38
2019-01-20T09:47:44.434Z,38
2019-01-20T09:48:33.461Z,38
2019-01-20T09:49:22.731Z,38
2019-01-20T09:50:13.494Z,37.9
2019-01-20T09:51:03.073Z,37.9
2019-01-20T09:51:53.116Z,37.9
2019-01-20T09:52:43.464Z,37.9
2019-01-20T09:53:33.034Z,37.9
2019-01-20T09:54:23.862Z,37.9
2019-01-20T09:55:13.141Z,37.9
2019-01-20T09:56:03.241Z,37.9
2019-01-20T09:56:53.178Z,37.9
2019-01-20T09:57:43.568Z,37.9
2019-01-20T09:58:32.831Z,37.9
2019-01-20T09:59:22.609Z,37.9
2019-01-20T10:00:13.711Z,37.9
2019-01-20T10:01:03.336Z,37.9
2019-01-20T10:01:53.796Z,37.8
2019-01-20T10:02:43.912Z,37.8
2019-01-20T10:03:33.388Z,37.8
2019-01-20T10:04:24.588Z,37.8
2019-01-20T10:05:14.335Z,37.8
2019-01-20T10:07:42.282Z,37.8
2019-01-20T10:08:32.370Z,37.8
2019-01-20T10:09:22.398Z,37.8
2019-01-20T10:10:12.492Z,37.8
2019-01-20T10:11:02.035Z,37.8
2019-01-20T10:11:52.582Z,37.8
2019-01-20T10:12:42.338Z,37.8
2019-01-20T10:13:32.418Z,37.8
2019-01-20T10:14:22.758Z,37.8
2019-01-20T10:15:12.867Z,37.8
2019-01-20T10:16:02.867Z,37.7
2019-01-20T10:16:54.501Z,37.7
2019-01-20T10:17:43.025Z,37.7
2019-01-20T10:18:32.757Z,37.7
2019-01-20T10:19:23.091Z,37.7
2019-01-20T10:20:12.837Z,37.7
2019-01-20T10:21:03.249Z,37.7
2019-01-20T10:21:53.302Z,37.6
2019-01-20T10:22:42.799Z,37.7
2019-01-20T10:23:33.344Z,37.6
2019-01-20T10:24:23.137Z,37.6
2019-01-20T10:25:20.815Z,37.7
2019-01-20T10:26:03.246Z,37.6
2019-01-20T10:26:52.826Z,37.7
2019-01-20T10:27:43.212Z,37.6
2019-01-20T10:28:33.229Z,37.6
2019-01-20T10:29:23.269Z,37.6
2019-01-20T10:30:13.071Z,37.6
2019-01-20T10:31:03.321Z,37.6
2019-01-20T10:31:53.386Z,37.6
2019-01-20T10:32:48.444Z,37.6
2019-01-20T10:33:33.316Z,37.6
2019-01-20T10:34:23.811Z,37.6
2019-01-20T10:35:14.149Z,37.6
2019-01-20T10:36:04.218Z,37.6
2019-01-20T10:36:53.234Z,37.6
2019-01-20T10:37:44.036Z,37.6
2019-01-20T10:38:38.633Z,37.6
2019-01-20T10:39:24.206Z,37.6
2019-01-20T10:40:14.485Z,37.6
2019-01-20T10:41:04.278Z,37.6
2019-01-20T10:41:55.747Z,37.6
2019-01-20T10:42:44.419Z,37.6
2019-01-20T10:43:34.723Z,37.6
2019-01-20T10:44:24.820Z,37.6
2019-01-20T10:45:14.598Z,37.5
2019-01-20T10:46:04.425Z,37.5
2019-01-20T10:46:54.182Z,37.5
2019-01-20T10:47:44.266Z,37.5
2019-01-20T10:48:34.880Z,37.5
2019-01-20T10:49:24.385Z,37.5
2019-01-20T10:50:14.702Z,37.5
2019-01-20T10:51:04.988Z,37.5
2019-01-20T10:51:54.722Z,37.5
2019-01-20T10:52:44.587Z,37.4
2019-01-20T10:53:35.132Z,37.5
2019-01-20T10:54:25.495Z,37.4
2019-01-20T10:55:15.292Z,37.4
2019-01-20T10:56:05.305Z,37.4
2019-01-20T10:56:54.860Z,37.4
2019-01-20T10:57:44.960Z,37.4
2019-01-20T10:58:35.287Z,37.4
2019-01-20T10:59:25.805Z,37.4
2019-01-20T11:00:14.539Z,37.4
2019-01-20T11:01:05.424Z,37.4
2019-01-20T11:01:55.997Z,37.4
2019-01-20T11:02:45.576Z,37.4
2019-01-20T11:03:35.332Z,37.4
2019-01-20T11:04:25.640Z,37.4
2019-01-20T11:05:15.724Z,37.4
2019-01-20T11:06:05.813Z,37.4
2019-01-20T11:06:55.279Z,37.4
2019-01-20T11:07:45.809Z,26.1
2019-01-20T11:08:36.429Z,31
2019-01-20T11:09:26.496Z,46.2
2019-01-20T11:10:16.094Z,52.9
2019-01-20T11:11:06.613Z,52.6
2019-01-20T11:11:56.658Z,51.3
2019-01-20T11:12:47.151Z,50
2019-01-20T11:13:36.221Z,48.9
2019-01-20T11:14:26.822Z,48.3
2019-01-20T11:15:16.673Z,47.8
2019-01-20T11:16:08.276Z,47.3
2019-01-20T11:16:56.723Z,46.8
2019-01-20T11:17:46.568Z,46.4